Limon, CO (80826)

10:33 PM MDT on July 28, 2016 (GMT -0600)
Limon, CO | | Change Station
Active Advisory: Severe Thunderstorm Warning

Elev 5361 ft 39.27 °N, 103.68 °W | Updated 1 minute ago

Rain
Rain
64.5 °F
Feels Like 64.5 °F
N
9.0
Wind Variable Wind from SSE
Gusts 10.0 mph

Today
High -- | Low -- °F
--% Chance of Precip.
Yesterday
High -- | Low -- °F
Precip. -- in
Pressure 30.23 in
Visibility 10.0 miles
Clouds Few 7000 ft
Overcast 9000 ft
Dew Point 61 °F
Humidity 88%
Rainfall 0.06 in
Snow Depth Not available.
5:51 AM 8:10 PM
Waning Crescent, 25% visible
SPECI KLIC 290402Z AUTO 13013KT 10SM FEW070 OVC090 18/16 A3023 RMK AO2 WSHFT 0342 T01780161 TSNO
Pressure 30.23 in
Visibility 10.0 miles
Clouds Few 7000 ft
Overcast 9000 ft
Dew Point 61 °F
Humidity 88%
Rainfall 0.06 in
Snow Depth Not available.
5:51 AM 8:10 PM
Waning Crescent, 25% visible
SPECI KLIC 290402Z AUTO 13013KT 10SM FEW070 OVC090 18/16 A3023 RMK AO2 WSHFT 0342 T01780161 TSNO

10-Day Weather Forecast

Almanac

Astronomy

Jul. 28, 2016 Rise Set
Actual Time
Civil Twilight
Nautical Twilight
Astronomical Twilight
Moon
Length of Visible Light
Length of Day
Tomorrow will be .
, % of the Moon is Illuminated

Today's Extremes

State Highs State Lows

Community

WunderPhotos

Upload Photos

1,928,294 photos uploaded!

WunderBlog® & News

Nearby

Air Quality

  Air Quality AQ Index Pollutant
Not available.

Snow Depth

Station Depth Elevation

Earthquake Activity

City Distance Mag. Time & Date
Minimum magnitude displayed is 2.5.

Coastal Water Temperatures

Place Temperature

Stations

Nearby Weather Stations

Station Location Temp. Windchill Dew Point Humidity Wind Precip. Elev Updated Type
                   

Watches & Warnings

Severe Thunderstorm Warning
Issued: 10:24 PM MDT Jul. 28, 2016 – National Weather Service

... A Severe Thunderstorm Warning remains in effect until 1045 PM MDT
for east central Elbert and north central Lincoln counties...

At 1024 PM MDT... a severe thunderstorm was located near
Limon... moving east at 20 mph.

Hazard... ping pong Ball size hail and 60 mph wind gusts.

Source... radar indicated.

Impact... people and animals outdoors will be injured. Expect hail
         damage to roofs... siding... windows... and vehicles. Expect
         wind damage to roofs... siding... and trees.

Locations impacted include...
Limon.

Precautionary/preparedness actions...

For your protection move to an interior room on the lowest floor of a
building.

Continuous cloud to ground lightning is occurring with this storm.
Move indoors immediately. Lightning is one of nature's leading
killers. Remember... if you can hear thunder... you are close enough to
be struck by lightning.


Lat... Lon 3916 10393 3940 10392 3942 10355 3918 10357
time... Mot... loc 0424z 261deg 19kt 3929 10372

Hail... 1.50in
wind... 60mph


Rpk